sensor_id;sensor_type;location;lat;lon;timestamp;P1;durP1;ratioP1;P2;durP2;ratioP2
7338;SDS011;33747;49.524;8.390;2024-02-21T00:01:02;14.82;;;4.72;;
7338;SDS011;33747;49.524;8.390;2024-02-21T00:03:29;20.75;;;4.63;;
7338;SDS011;33747;49.524;8.390;2024-02-21T00:05:55;19.60;;;4.78;;
7338;SDS011;33747;49.524;8.390;2024-02-21T00:08:20;21.90;;;5.38;;
7338;SDS011;33747;49.524;8.390;2024-02-21T00:10:46;18.50;;;5.45;;
7338;SDS011;33747;49.524;8.390;2024-02-21T00:13:11;11.77;;;4.72;;
7338;SDS011;33747;49.524;8.390;2024-02-21T00:15:38;17.35;;;4.53;;
7338;SDS011;33747;49.524;8.390;2024-02-21T00:18:04;16.30;;;4.55;;
7338;SDS011;33747;49.524;8.390;2024-02-21T00:20:30;13.80;;;4.22;;
7338;SDS011;33747;49.524;8.390;2024-02-21T00:22:56;17.38;;;4.85;;
7338;SDS011;33747;49.524;8.390;2024-02-21T00:25:24;22.25;;;5.32;;
7338;SDS011;33747;49.524;8.390;2024-02-21T00:27:50;20.40;;;5.63;;
7338;SDS011;33747;49.524;8.390;2024-02-21T00:30:18;19.30;;;4.97;;
7338;SDS011;33747;49.524;8.390;2024-02-21T00:32:44;20.23;;;5.57;;
7338;SDS011;33747;49.524;8.390;2024-02-21T00:35:11;18.38;;;5.15;;
7338;SDS011;33747;49.524;8.390;2024-02-21T00:37:38;15.18;;;4.13;;
7338;SDS011;33747;49.524;8.390;2024-02-21T00:40:03;14.27;;;4.60;;
7338;SDS011;33747;49.524;8.390;2024-02-21T00:42:30;15.55;;;4.68;;
7338;SDS011;33747;49.524;8.390;2024-02-21T00:44:55;21.48;;;5.05;;
7338;SDS011;33747;49.524;8.390;2024-02-21T00:47:21;15.77;;;4.78;;
7338;SDS011;33747;49.524;8.390;2024-02-21T00:49:46;20.83;;;5.45;;
7338;SDS011;33747;49.524;8.390;2024-02-21T00:52:12;23.33;;;5.30;;
7338;SDS011;33747;49.524;8.390;2024-02-21T00:54:39;19.95;;;5.20;;
7338;SDS011;33747;49.524;8.390;2024-02-21T00:57:06;14.70;;;4.25;;
7338;SDS011;33747;49.524;8.390;2024-02-21T00:59:33;14.60;;;4.53;;
7338;SDS011;33747;49.524;8.390;2024-02-21T01:01:58;20.33;;;5.70;;
7338;SDS011;33747;49.524;8.390;2024-02-21T01:04:24;19.77;;;5.40;;
7338;SDS011;33747;49.524;8.390;2024-02-21T01:06:51;20.90;;;4.85;;
7338;SDS011;33747;49.524;8.390;2024-02-21T01:09:18;18.55;;;4.70;;
7338;SDS011;33747;49.524;8.390;2024-02-21T01:11:43;16.65;;;4.85;;
7338;SDS011;33747;49.524;8.390;2024-02-21T01:14:08;16.77;;;5.38;;
7338;SDS011;33747;49.524;8.390;2024-02-21T01:16:36;19.60;;;4.90;;
7338;SDS011;33747;49.524;8.390;2024-02-21T01:19:02;19.38;;;5.32;;
7338;SDS011;33747;49.524;8.390;2024-02-21T01:21:29;15.77;;;5.10;;
7338;SDS011;33747;49.524;8.390;2024-02-21T01:23:54;19.40;;;4.90;;
7338;SDS011;33747;49.524;8.390;2024-02-21T01:26:19;17.48;;;5.40;;
7338;SDS011;33747;49.524;8.390;2024-02-21T01:28:45;18.27;;;4.82;;
7338;SDS011;33747;49.524;8.390;2024-02-21T01:31:10;15.48;;;4.95;;
7338;SDS011;33747;49.524;8.390;2024-02-21T01:33:36;11.25;;;4.25;;
7338;SDS011;33747;49.524;8.390;2024-02-21T01:36:01;14.77;;;5.30;;
7338;SDS011;33747;49.524;8.390;2024-02-21T01:38:27;13.00;;;4.60;;
7338;SDS011;33747;49.524;8.390;2024-02-21T01:40:53;14.98;;;4.50;;
7338;SDS011;33747;49.524;8.390;2024-02-21T01:43:20;25.02;;;5.25;;
7338;SDS011;33747;49.524;8.390;2024-02-21T01:45:50;18.60;;;4.63;;
7338;SDS011;33747;49.524;8.390;2024-02-21T01:48:22;21.25;;;5.18;;
7338;SDS011;33747;49.524;8.390;2024-02-21T01:50:50;20.77;;;5.70;;
7338;SDS011;33747;49.524;8.390;2024-02-21T01:53:17;22.05;;;5.43;;
7338;SDS011;33747;49.524;8.390;2024-02-21T01:55:46;17.10;;;5.47;;
7338;SDS011;33747;49.524;8.390;2024-02-21T01:58:16;17.20;;;5.00;;
7338;SDS011;33747;49.524;8.390;2024-02-21T02:00:42;20.40;;;5.20;;
7338;SDS011;33747;49.524;8.390;2024-02-21T02:03:12;18.27;;;5.22;;
7338;SDS011;33747;49.524;8.390;2024-02-21T02:05:42;18.67;;;5.07;;
7338;SDS011;33747;49.524;8.390;2024-02-21T02:08:09;12.80;;;4.45;;
7338;SDS011;33747;49.524;8.390;2024-02-21T02:10:34;19.60;;;5.22;;
7338;SDS011;33747;49.524;8.390;2024-02-21T02:13:01;18.10;;;4.65;;
7338;SDS011;33747;49.524;8.390;2024-02-21T02:15:26;13.13;;;4.45;;
7338;SDS011;33747;49.524;8.390;2024-02-21T02:18:16;16.58;;;4.40;;
7338;SDS011;33747;49.524;8.390;2024-02-21T02:20:43;21.38;;;4.63;;
7338;SDS011;33747;49.524;8.390;2024-02-21T02:25:45;11.05;;;4.72;;
7338;SDS011;33747;49.524;8.390;2024-02-21T02:28:14;18.60;;;5.15;;
7338;SDS011;33747;49.524;8.390;2024-02-21T02:30:39;14.18;;;4.65;;
7338;SDS011;33747;49.524;8.390;2024-02-21T02:33:05;16.83;;;5.55;;
7338;SDS011;33747;49.524;8.390;2024-02-21T02:35:31;19.70;;;4.60;;
7338;SDS011;33747;49.524;8.390;2024-02-21T02:37:56;19.65;;;5.30;;
7338;SDS011;33747;49.524;8.390;2024-02-21T02:40:22;13.85;;;5.00;;
7338;SDS011;33747;49.524;8.390;2024-02-21T02:42:48;17.52;;;5.85;;
7338;SDS011;33747;49.524;8.390;2024-02-21T02:45:14;19.08;;;5.32;;
7338;SDS011;33747;49.524;8.390;2024-02-21T02:47:40;19.13;;;5.43;;
7338;SDS011;33747;49.524;8.390;2024-02-21T02:50:06;27.23;;;5.22;;
7338;SDS011;33747;49.524;8.390;2024-02-21T02:52:32;19.55;;;5.95;;
7338;SDS011;33747;49.524;8.390;2024-02-21T02:54:58;12.35;;;4.10;;
7338;SDS011;33747;49.524;8.390;2024-02-21T02:57:24;11.90;;;4.57;;
7338;SDS011;33747;49.524;8.390;2024-02-21T02:59:49;13.77;;;4.45;;
7338;SDS011;33747;49.524;8.390;2024-02-21T03:02:15;17.98;;;4.90;;
7338;SDS011;33747;49.524;8.390;2024-02-21T03:04:41;14.95;;;5.35;;
7338;SDS011;33747;49.524;8.390;2024-02-21T03:07:06;22.77;;;5.63;;
7338;SDS011;33747;49.524;8.390;2024-02-21T03:09:32;16.52;;;4.22;;
7338;SDS011;33747;49.524;8.390;2024-02-21T03:11:57;14.55;;;4.55;;
7338;SDS011;33747;49.524;8.390;2024-02-21T03:14:34;20.15;;;4.80;;
7338;SDS011;33747;49.524;8.390;2024-02-21T03:17:00;25.10;;;5.50;;
7338;SDS011;33747;49.524;8.390;2024-02-21T03:19:25;13.88;;;4.95;;
7338;SDS011;33747;49.524;8.390;2024-02-21T03:21:51;13.23;;;4.53;;
7338;SDS011;33747;49.524;8.390;2024-02-21T03:24:18;12.93;;;4.25;;
7338;SDS011;33747;49.524;8.390;2024-02-21T03:26:44;13.05;;;4.97;;
7338;SDS011;33747;49.524;8.390;2024-02-21T03:29:10;15.38;;;4.63;;
7338;SDS011;33747;49.524;8.390;2024-02-21T03:31:36;20.65;;;4.30;;
7338;SDS011;33747;49.524;8.390;2024-02-21T03:34:01;15.40;;;3.92;;
7338;SDS011;33747;49.524;8.390;2024-02-21T03:36:27;13.70;;;4.43;;
7338;SDS011;33747;49.524;8.390;2024-02-21T03:38:56;16.27;;;5.20;;
7338;SDS011;33747;49.524;8.390;2024-02-21T03:41:21;14.77;;;4.90;;
7338;SDS011;33747;49.524;8.390;2024-02-21T03:43:49;9.98;;;3.80;;
7338;SDS011;33747;49.524;8.390;2024-02-21T03:46:16;16.25;;;4.68;;
7338;SDS011;33747;49.524;8.390;2024-02-21T03:48:41;16.10;;;4.65;;
7338;SDS011;33747;49.524;8.390;2024-02-21T03:51:06;18.02;;;4.95;;
7338;SDS011;33747;49.524;8.390;2024-02-21T03:53:33;21.10;;;5.07;;
7338;SDS011;33747;49.524;8.390;2024-02-21T03:56:02;10.13;;;4.70;;
7338;SDS011;33747;49.524;8.390;2024-02-21T03:58:30;13.50;;;4.60;;
7338;SDS011;33747;49.524;8.390;2024-02-21T04:00:55;13.13;;;4.72;;
7338;SDS011;33747;49.524;8.390;2024-02-21T04:03:22;19.60;;;5.25;;
7338;SDS011;33747;49.524;8.390;2024-02-21T04:05:49;13.60;;;4.88;;
7338;SDS011;33747;49.524;8.390;2024-02-21T04:08:15;19.10;;;5.25;;
7338;SDS011;33747;49.524;8.390;2024-02-21T04:10:41;16.98;;;4.95;;
7338;SDS011;33747;49.524;8.390;2024-02-21T04:13:06;14.15;;;4.15;;
7338;SDS011;33747;49.524;8.390;2024-02-21T04:15:32;14.73;;;4.90;;
7338;SDS011;33747;49.524;8.390;2024-02-21T04:17:57;11.40;;;4.32;;
7338;SDS011;33747;49.524;8.390;2024-02-21T04:20:24;13.13;;;4.22;;
7338;SDS011;33747;49.524;8.390;2024-02-21T04:22:49;13.27;;;4.00;;
7338;SDS011;33747;49.524;8.390;2024-02-21T04:25:16;12.40;;;4.85;;
7338;SDS011;33747;49.524;8.390;2024-02-21T04:27:41;13.88;;;4.15;;
7338;SDS011;33747;49.524;8.390;2024-02-21T04:30:08;13.82;;;4.35;;
7338;SDS011;33747;49.524;8.390;2024-02-21T04:32:35;14.40;;;4.13;;
7338;SDS011;33747;49.524;8.390;2024-02-21T04:35:01;13.85;;;4.85;;
7338;SDS011;33747;49.524;8.390;2024-02-21T04:37:27;15.55;;;4.68;;
7338;SDS011;33747;49.524;8.390;2024-02-21T04:39:52;14.07;;;4.60;;
7338;SDS011;33747;49.524;8.390;2024-02-21T04:42:19;13.95;;;4.38;;
7338;SDS011;33747;49.524;8.390;2024-02-21T04:44:45;12.77;;;4.53;;
7338;SDS011;33747;49.524;8.390;2024-02-21T04:47:11;9.85;;;4.00;;
7338;SDS011;33747;49.524;8.390;2024-02-21T04:49:37;23.30;;;5.10;;
7338;SDS011;33747;49.524;8.390;2024-02-21T04:52:03;13.15;;;4.38;;
7338;SDS011;33747;49.524;8.390;2024-02-21T04:54:29;15.45;;;5.05;;
7338;SDS011;33747;49.524;8.390;2024-02-21T04:56:55;20.50;;;4.80;;
7338;SDS011;33747;49.524;8.390;2024-02-21T04:59:20;16.73;;;4.47;;
7338;SDS011;33747;49.524;8.390;2024-02-21T05:01:47;11.65;;;4.70;;
7338;SDS011;33747;49.524;8.390;2024-02-21T05:04:13;11.90;;;4.32;;
7338;SDS011;33747;49.524;8.390;2024-02-21T05:06:38;21.80;;;4.78;;
7338;SDS011;33747;49.524;8.390;2024-02-21T05:09:05;18.35;;;5.50;;
7338;SDS011;33747;49.524;8.390;2024-02-21T05:11:32;16.02;;;4.68;;
7338;SDS011;33747;49.524;8.390;2024-02-21T05:13:58;16.45;;;5.00;;
7338;SDS011;33747;49.524;8.390;2024-02-21T05:16:23;13.75;;;4.57;;
7338;SDS011;33747;49.524;8.390;2024-02-21T05:18:50;14.02;;;4.15;;
7338;SDS011;33747;49.524;8.390;2024-02-21T05:21:18;19.15;;;4.78;;
7338;SDS011;33747;49.524;8.390;2024-02-21T05:23:44;25.92;;;6.03;;
7338;SDS011;33747;49.524;8.390;2024-02-21T05:26:10;17.17;;;5.00;;
7338;SDS011;33747;49.524;8.390;2024-02-21T05:28:36;14.05;;;4.13;;
7338;SDS011;33747;49.524;8.390;2024-02-21T05:31:02;11.07;;;4.45;;
7338;SDS011;33747;49.524;8.390;2024-02-21T05:33:27;14.23;;;5.05;;
7338;SDS011;33747;49.524;8.390;2024-02-21T05:35:56;14.25;;;4.78;;
7338;SDS011;33747;49.524;8.390;2024-02-21T05:38:23;20.52;;;5.18;;
7338;SDS011;33747;49.524;8.390;2024-02-21T05:40:51;7.63;;;3.80;;
7338;SDS011;33747;49.524;8.390;2024-02-21T05:43:16;22.92;;;5.32;;
7338;SDS011;33747;49.524;8.390;2024-02-21T05:45:41;14.98;;;4.35;;
7338;SDS011;33747;49.524;8.390;2024-02-21T05:48:07;15.15;;;4.53;;
7338;SDS011;33747;49.524;8.390;2024-02-21T05:50:32;16.13;;;5.57;;
7338;SDS011;33747;49.524;8.390;2024-02-21T05:52:58;12.50;;;4.22;;
7338;SDS011;33747;49.524;8.390;2024-02-21T05:55:23;18.90;;;4.93;;
7338;SDS011;33747;49.524;8.390;2024-02-21T05:57:49;10.05;;;4.13;;
7338;SDS011;33747;49.524;8.390;2024-02-21T06:00:14;13.80;;;4.63;;
7338;SDS011;33747;49.524;8.390;2024-02-21T06:02:40;18.83;;;4.63;;
7338;SDS011;33747;49.524;8.390;2024-02-21T06:05:06;11.85;;;4.45;;
7338;SDS011;33747;49.524;8.390;2024-02-21T06:07:32;16.08;;;4.95;;
7338;SDS011;33747;49.524;8.390;2024-02-21T06:10:04;22.65;;;5.03;;
7338;SDS011;33747;49.524;8.390;2024-02-21T06:12:29;14.88;;;5.18;;
7338;SDS011;33747;49.524;8.390;2024-02-21T06:14:55;20.38;;;10.40;;
7338;SDS011;33747;49.524;8.390;2024-02-21T06:17:20;13.20;;;4.68;;
7338;SDS011;33747;49.524;8.390;2024-02-21T06:19:45;13.63;;;4.78;;
7338;SDS011;33747;49.524;8.390;2024-02-21T06:22:11;12.73;;;4.63;;
7338;SDS011;33747;49.524;8.390;2024-02-21T06:24:36;11.88;;;4.60;;
7338;SDS011;33747;49.524;8.390;2024-02-21T06:27:03;12.93;;;4.63;;
7338;SDS011;33747;49.524;8.390;2024-02-21T06:29:29;11.68;;;4.70;;
7338;SDS011;33747;49.524;8.390;2024-02-21T06:31:54;14.65;;;4.43;;
7338;SDS011;33747;49.524;8.390;2024-02-21T06:34:20;14.55;;;4.55;;
7338;SDS011;33747;49.524;8.390;2024-02-21T06:36:45;18.00;;;4.93;;
7338;SDS011;33747;49.524;8.390;2024-02-21T06:39:11;18.92;;;5.38;;
7338;SDS011;33747;49.524;8.390;2024-02-21T06:41:36;19.67;;;4.85;;
7338;SDS011;33747;49.524;8.390;2024-02-21T06:44:02;11.55;;;4.93;;
7338;SDS011;33747;49.524;8.390;2024-02-21T06:46:28;15.55;;;5.47;;
7338;SDS011;33747;49.524;8.390;2024-02-21T06:48:53;15.40;;;5.35;;
7338;SDS011;33747;49.524;8.390;2024-02-21T06:51:21;18.13;;;5.05;;
7338;SDS011;33747;49.524;8.390;2024-02-21T06:53:46;12.15;;;4.35;;
7338;SDS011;33747;49.524;8.390;2024-02-21T06:56:12;13.38;;;4.60;;
7338;SDS011;33747;49.524;8.390;2024-02-21T06:58:37;15.40;;;5.15;;
7338;SDS011;33747;49.524;8.390;2024-02-21T07:01:02;24.60;;;5.25;;
7338;SDS011;33747;49.524;8.390;2024-02-21T07:03:28;8.90;;;4.25;;
7338;SDS011;33747;49.524;8.390;2024-02-21T07:05:53;17.27;;;5.60;;
7338;SDS011;33747;49.524;8.390;2024-02-21T07:08:19;16.02;;;6.18;;
7338;SDS011;33747;49.524;8.390;2024-02-21T07:10:44;14.48;;;4.72;;
7338;SDS011;33747;49.524;8.390;2024-02-21T07:13:09;12.38;;;4.80;;
7338;SDS011;33747;49.524;8.390;2024-02-21T07:15:35;15.65;;;5.30;;
7338;SDS011;33747;49.524;8.390;2024-02-21T07:18:01;20.17;;;5.03;;
7338;SDS011;33747;49.524;8.390;2024-02-21T07:20:27;12.50;;;5.00;;
7338;SDS011;33747;49.524;8.390;2024-02-21T07:22:52;22.17;;;5.28;;
7338;SDS011;33747;49.524;8.390;2024-02-21T07:25:17;14.15;;;4.82;;
7338;SDS011;33747;49.524;8.390;2024-02-21T07:27:43;18.80;;;5.93;;
7338;SDS011;33747;49.524;8.390;2024-02-21T07:30:09;13.90;;;5.25;;
7338;SDS011;33747;49.524;8.390;2024-02-21T07:32:34;17.38;;;4.97;;
7338;SDS011;33747;49.524;8.390;2024-02-21T07:35:00;19.23;;;5.88;;
7338;SDS011;33747;49.524;8.390;2024-02-21T07:37:25;19.67;;;5.55;;
7338;SDS011;33747;49.524;8.390;2024-02-21T07:39:51;16.63;;;5.60;;
7338;SDS011;33747;49.524;8.390;2024-02-21T07:42:16;14.55;;;5.18;;
7338;SDS011;33747;49.524;8.390;2024-02-21T07:44:41;19.05;;;6.18;;
7338;SDS011;33747;49.524;8.390;2024-02-21T07:47:07;13.43;;;6.13;;
7338;SDS011;33747;49.524;8.390;2024-02-21T07:49:40;13.82;;;5.32;;
7338;SDS011;33747;49.524;8.390;2024-02-21T07:52:06;21.90;;;7.43;;
7338;SDS011;33747;49.524;8.390;2024-02-21T07:54:31;16.48;;;5.47;;
7338;SDS011;33747;49.524;8.390;2024-02-21T07:56:56;14.30;;;6.07;;
7338;SDS011;33747;49.524;8.390;2024-02-21T07:59:22;14.20;;;5.45;;
7338;SDS011;33747;49.524;8.390;2024-02-21T08:01:47;20.00;;;6.20;;
7338;SDS011;33747;49.524;8.390;2024-02-21T08:04:12;20.25;;;6.35;;
7338;SDS011;33747;49.524;8.390;2024-02-21T08:06:38;10.43;;;4.90;;
7338;SDS011;33747;49.524;8.390;2024-02-21T08:09:03;18.25;;;5.57;;
7338;SDS011;33747;49.524;8.390;2024-02-21T08:11:29;20.35;;;6.07;;
7338;SDS011;33747;49.524;8.390;2024-02-21T08:13:54;13.77;;;5.18;;
7338;SDS011;33747;49.524;8.390;2024-02-21T08:16:20;9.23;;;4.85;;
7338;SDS011;33747;49.524;8.390;2024-02-21T08:18:45;13.93;;;5.32;;
7338;SDS011;33747;49.524;8.390;2024-02-21T08:21:11;20.75;;;5.53;;
7338;SDS011;33747;49.524;8.390;2024-02-21T08:23:36;19.45;;;5.60;;
7338;SDS011;33747;49.524;8.390;2024-02-21T08:26:03;15.75;;;5.05;;
7338;SDS011;33747;49.524;8.390;2024-02-21T08:28:28;16.52;;;5.78;;
7338;SDS011;33747;49.524;8.390;2024-02-21T08:30:54;20.95;;;5.70;;
7338;SDS011;33747;49.524;8.390;2024-02-21T08:33:19;20.17;;;5.75;;
7338;SDS011;33747;49.524;8.390;2024-02-21T08:35:49;19.17;;;5.22;;
7338;SDS011;33747;49.524;8.390;2024-02-21T08:38:14;17.48;;;5.35;;
7338;SDS011;33747;49.524;8.390;2024-02-21T08:40:40;17.48;;;4.70;;
7338;SDS011;33747;49.524;8.390;2024-02-21T08:43:05;15.00;;;5.90;;
7338;SDS011;33747;49.524;8.390;2024-02-21T08:45:31;10.88;;;4.72;;
7338;SDS011;33747;49.524;8.390;2024-02-21T08:47:56;19.85;;;5.65;;
7338;SDS011;33747;49.524;8.390;2024-02-21T08:50:21;14.93;;;5.20;;
7338;SDS011;33747;49.524;8.390;2024-02-21T08:52:47;17.92;;;6.05;;
7338;SDS011;33747;49.524;8.390;2024-02-21T08:55:12;19.85;;;5.30;;
7338;SDS011;33747;49.524;8.390;2024-02-21T08:57:38;14.05;;;5.15;;
7338;SDS011;33747;49.524;8.390;2024-02-21T09:00:04;16.48;;;5.68;;
7338;SDS011;33747;49.524;8.390;2024-02-21T09:02:35;12.80;;;5.10;;
7338;SDS011;33747;49.524;8.390;2024-02-21T09:05:01;15.63;;;4.78;;
7338;SDS011;33747;49.524;8.390;2024-02-21T09:07:30;18.70;;;4.75;;
7338;SDS011;33747;49.524;8.390;2024-02-21T09:09:56;17.30;;;4.68;;
7338;SDS011;33747;49.524;8.390;2024-02-21T09:12:22;11.98;;;4.90;;
7338;SDS011;33747;49.524;8.390;2024-02-21T09:14:47;20.48;;;5.10;;
7338;SDS011;33747;49.524;8.390;2024-02-21T09:17:15;15.02;;;4.53;;
7338;SDS011;33747;49.524;8.390;2024-02-21T09:19:42;17.00;;;4.72;;
7338;SDS011;33747;49.524;8.390;2024-02-21T09:22:07;10.48;;;4.43;;
7338;SDS011;33747;49.524;8.390;2024-02-21T09:24:33;12.70;;;4.85;;
7338;SDS011;33747;49.524;8.390;2024-02-21T09:26:58;13.25;;;4.15;;
7338;SDS011;33747;49.524;8.390;2024-02-21T09:29:24;11.55;;;4.18;;
7338;SDS011;33747;49.524;8.390;2024-02-21T09:31:50;15.88;;;4.30;;
7338;SDS011;33747;49.524;8.390;2024-02-21T09:34:15;15.50;;;4.07;;
7338;SDS011;33747;49.524;8.390;2024-02-21T09:36:40;12.23;;;4.72;;
7338;SDS011;33747;49.524;8.390;2024-02-21T09:39:06;20.50;;;4.32;;
7338;SDS011;33747;49.524;8.390;2024-02-21T09:41:31;13.95;;;4.45;;
7338;SDS011;33747;49.524;8.390;2024-02-21T09:43:57;14.32;;;4.22;;
7338;SDS011;33747;49.524;8.390;2024-02-21T09:49:17;11.25;;;4.50;;
7338;SDS011;33747;49.524;8.390;2024-02-21T09:51:51;19.35;;;5.13;;
7338;SDS011;33747;49.524;8.390;2024-02-21T09:54:17;15.50;;;4.95;;
7338;SDS011;33747;49.524;8.390;2024-02-21T09:56:46;20.25;;;4.53;;
7338;SDS011;33747;49.524;8.390;2024-02-21T09:59:13;18.33;;;4.80;;
7338;SDS011;33747;49.524;8.390;2024-02-21T10:01:39;18.23;;;3.80;;
7338;SDS011;33747;49.524;8.390;2024-02-21T10:04:05;10.50;;;4.03;;
7338;SDS011;33747;49.524;8.390;2024-02-21T10:06:31;13.68;;;4.32;;
7338;SDS011;33747;49.524;8.390;2024-02-21T10:08:57;9.77;;;4.13;;
7338;SDS011;33747;49.524;8.390;2024-02-21T10:11:25;11.68;;;4.45;;
7338;SDS011;33747;49.524;8.390;2024-02-21T10:13:51;17.88;;;4.55;;
7338;SDS011;33747;49.524;8.390;2024-02-21T10:16:28;10.70;;;3.97;;
7338;SDS011;33747;49.524;8.390;2024-02-21T10:18:54;13.50;;;4.13;;
7338;SDS011;33747;49.524;8.390;2024-02-21T10:21:19;10.25;;;4.00;;
7338;SDS011;33747;49.524;8.390;2024-02-21T10:23:45;15.43;;;5.03;;
7338;SDS011;33747;49.524;8.390;2024-02-21T10:26:12;11.63;;;4.15;;
7338;SDS011;33747;49.524;8.390;2024-02-21T10:28:38;15.63;;;4.93;;
7338;SDS011;33747;49.524;8.390;2024-02-21T10:31:08;11.95;;;3.95;;
7338;SDS011;33747;49.524;8.390;2024-02-21T10:33:35;19.25;;;5.60;;
7338;SDS011;33747;49.524;8.390;2024-02-21T10:36:06;17.33;;;3.72;;
7338;SDS011;33747;49.524;8.390;2024-02-21T10:38:33;10.38;;;3.35;;
7338;SDS011;33747;49.524;8.390;2024-02-21T10:40:58;14.57;;;3.08;;
7338;SDS011;33747;49.524;8.390;2024-02-21T10:43:24;14.57;;;3.38;;
7338;SDS011;33747;49.524;8.390;2024-02-21T10:45:50;11.43;;;2.85;;
7338;SDS011;33747;49.524;8.390;2024-02-21T10:48:19;11.95;;;3.38;;
7338;SDS011;33747;49.524;8.390;2024-02-21T10:50:57;14.90;;;4.10;;
7338;SDS011;33747;49.524;8.390;2024-02-21T10:53:44;11.75;;;4.07;;
7338;SDS011;33747;49.524;8.390;2024-02-21T10:58:48;16.90;;;6.07;;
7338;SDS011;33747;49.524;8.390;2024-02-21T11:01:14;15.95;;;6.00;;
7338;SDS011;33747;49.524;8.390;2024-02-21T11:03:41;10.57;;;3.50;;
7338;SDS011;33747;49.524;8.390;2024-02-21T11:06:07;12.90;;;3.35;;
7338;SDS011;33747;49.524;8.390;2024-02-21T11:08:34;11.23;;;3.17;;
7338;SDS011;33747;49.524;8.390;2024-02-21T11:10:59;10.23;;;3.03;;
7338;SDS011;33747;49.524;8.390;2024-02-21T11:13:35;15.75;;;4.05;;
7338;SDS011;33747;49.524;8.390;2024-02-21T11:16:07;12.07;;;3.28;;
7338;SDS011;33747;49.524;8.390;2024-02-21T11:18:34;10.25;;;3.08;;
7338;SDS011;33747;49.524;8.390;2024-02-21T11:21:00;12.00;;;3.67;;
7338;SDS011;33747;49.524;8.390;2024-02-21T11:23:26;14.68;;;3.75;;
7338;SDS011;33747;49.524;8.390;2024-02-21T11:26:03;11.20;;;3.58;;
7338;SDS011;33747;49.524;8.390;2024-02-21T11:28:32;12.50;;;3.60;;
7338;SDS011;33747;49.524;8.390;2024-02-21T11:31:13;7.95;;;3.72;;
7338;SDS011;33747;49.524;8.390;2024-02-21T11:33:42;12.05;;;3.45;;
7338;SDS011;33747;49.524;8.390;2024-02-21T11:36:08;10.65;;;2.97;;
7338;SDS011;33747;49.524;8.390;2024-02-21T11:38:37;14.10;;;3.80;;
7338;SDS011;33747;49.524;8.390;2024-02-21T11:41:02;11.48;;;3.78;;
7338;SDS011;33747;49.524;8.390;2024-02-21T11:43:27;9.70;;;2.85;;
7338;SDS011;33747;49.524;8.390;2024-02-21T11:46:02;12.25;;;3.28;;
7338;SDS011;33747;49.524;8.390;2024-02-21T11:48:28;9.02;;;2.63;;
7338;SDS011;33747;49.524;8.390;2024-02-21T11:50:54;10.10;;;3.20;;
7338;SDS011;33747;49.524;8.390;2024-02-21T11:53:20;8.82;;;3.20;;
7338;SDS011;33747;49.524;8.390;2024-02-21T11:55:47;12.23;;;3.13;;
7338;SDS011;33747;49.524;8.390;2024-02-21T11:58:13;9.35;;;2.95;;
7338;SDS011;33747;49.524;8.390;2024-02-21T12:00:38;7.85;;;2.85;;
7338;SDS011;33747;49.524;8.390;2024-02-21T12:03:05;16.40;;;6.18;;
7338;SDS011;33747;49.524;8.390;2024-02-21T12:05:30;16.08;;;6.40;;
7338;SDS011;33747;49.524;8.390;2024-02-21T12:07:56;14.90;;;4.50;;
7338;SDS011;33747;49.524;8.390;2024-02-21T12:10:23;13.95;;;3.50;;
7338;SDS011;33747;49.524;8.390;2024-02-21T12:12:48;10.15;;;3.15;;
7338;SDS011;33747;49.524;8.390;2024-02-21T12:15:16;9.13;;;3.03;;
7338;SDS011;33747;49.524;8.390;2024-02-21T12:17:43;7.18;;;2.45;;
7338;SDS011;33747;49.524;8.390;2024-02-21T12:20:10;9.45;;;3.17;;
7338;SDS011;33747;49.524;8.390;2024-02-21T12:22:36;13.48;;;3.80;;
7338;SDS011;33747;49.524;8.390;2024-02-21T12:25:18;11.18;;;2.75;;
7338;SDS011;33747;49.524;8.390;2024-02-21T12:27:47;9.15;;;3.22;;
7338;SDS011;33747;49.524;8.390;2024-02-21T12:30:14;10.73;;;3.17;;
7338;SDS011;33747;49.524;8.390;2024-02-21T12:32:39;7.82;;;2.75;;
7338;SDS011;33747;49.524;8.390;2024-02-21T12:35:06;17.02;;;3.38;;
7338;SDS011;33747;49.524;8.390;2024-02-21T12:37:31;12.55;;;3.05;;
7338;SDS011;33747;49.524;8.390;2024-02-21T12:39:57;14.98;;;3.15;;
7338;SDS011;33747;49.524;8.390;2024-02-21T12:42:23;8.38;;;2.97;;
7338;SDS011;33747;49.524;8.390;2024-02-21T12:44:50;9.00;;;3.10;;
7338;SDS011;33747;49.524;8.390;2024-02-21T12:47:17;12.82;;;3.47;;
7338;SDS011;33747;49.524;8.390;2024-02-21T12:49:44;12.55;;;3.25;;
7338;SDS011;33747;49.524;8.390;2024-02-21T12:52:09;8.20;;;4.22;;
7338;SDS011;33747;49.524;8.390;2024-02-21T12:54:35;14.27;;;3.63;;
7338;SDS011;33747;49.524;8.390;2024-02-21T12:57:00;8.85;;;2.60;;
7338;SDS011;33747;49.524;8.390;2024-02-21T12:59:28;7.07;;;2.80;;
7338;SDS011;33747;49.524;8.390;2024-02-21T13:01:53;5.90;;;2.85;;
7338;SDS011;33747;49.524;8.390;2024-02-21T13:04:19;17.55;;;2.58;;
7338;SDS011;33747;49.524;8.390;2024-02-21T13:06:45;11.93;;;3.08;;
7338;SDS011;33747;49.524;8.390;2024-02-21T13:09:10;12.77;;;4.32;;
7338;SDS011;33747;49.524;8.390;2024-02-21T13:11:36;14.82;;;3.60;;
7338;SDS011;33747;49.524;8.390;2024-02-21T13:14:02;8.65;;;2.83;;
7338;SDS011;33747;49.524;8.390;2024-02-21T13:16:28;10.23;;;3.28;;
7338;SDS011;33747;49.524;8.390;2024-02-21T13:18:53;8.70;;;2.95;;
7338;SDS011;33747;49.524;8.390;2024-02-21T13:21:18;7.00;;;2.90;;
7338;SDS011;33747;49.524;8.390;2024-02-21T13:23:44;9.18;;;3.05;;
7338;SDS011;33747;49.524;8.390;2024-02-21T13:26:10;11.07;;;3.28;;
7338;SDS011;33747;49.524;8.390;2024-02-21T13:28:36;11.82;;;3.72;;
7338;SDS011;33747;49.524;8.390;2024-02-21T13:31:01;12.88;;;3.60;;
7338;SDS011;33747;49.524;8.390;2024-02-21T13:33:28;8.80;;;2.92;;
7338;SDS011;33747;49.524;8.390;2024-02-21T13:35:53;9.52;;;2.90;;
7338;SDS011;33747;49.524;8.390;2024-02-21T13:38:19;6.80;;;2.80;;
7338;SDS011;33747;49.524;8.390;2024-02-21T13:40:44;13.85;;;3.00;;
7338;SDS011;33747;49.524;8.390;2024-02-21T13:43:10;10.55;;;2.75;;
7338;SDS011;33747;49.524;8.390;2024-02-21T13:45:35;9.30;;;4.05;;
7338;SDS011;33747;49.524;8.390;2024-02-21T13:48:00;11.15;;;3.25;;
7338;SDS011;33747;49.524;8.390;2024-02-21T13:50:29;9.00;;;3.80;;
7338;SDS011;33747;49.524;8.390;2024-02-21T13:52:55;17.45;;;5.95;;
7338;SDS011;33747;49.524;8.390;2024-02-21T13:55:20;13.15;;;3.05;;
7338;SDS011;33747;49.524;8.390;2024-02-21T13:57:47;10.13;;;3.05;;
7338;SDS011;33747;49.524;8.390;2024-02-21T14:00:12;8.07;;;3.08;;
7338;SDS011;33747;49.524;8.390;2024-02-21T14:02:38;10.45;;;2.70;;
7338;SDS011;33747;49.524;8.390;2024-02-21T14:05:04;10.68;;;2.88;;
7338;SDS011;33747;49.524;8.390;2024-02-21T14:07:31;10.52;;;3.08;;
7338;SDS011;33747;49.524;8.390;2024-02-21T14:09:58;14.10;;;3.03;;
7338;SDS011;33747;49.524;8.390;2024-02-21T14:12:23;9.90;;;2.90;;
7338;SDS011;33747;49.524;8.390;2024-02-21T14:14:49;8.43;;;2.78;;
7338;SDS011;33747;49.524;8.390;2024-02-21T14:17:15;8.95;;;2.92;;
7338;SDS011;33747;49.524;8.390;2024-02-21T14:19:40;17.05;;;3.95;;
7338;SDS011;33747;49.524;8.390;2024-02-21T14:22:06;10.95;;;3.65;;
7338;SDS011;33747;49.524;8.390;2024-02-21T14:24:32;6.80;;;2.67;;
7338;SDS011;33747;49.524;8.390;2024-02-21T14:26:57;9.00;;;3.38;;
7338;SDS011;33747;49.524;8.390;2024-02-21T14:29:22;9.93;;;3.03;;
7338;SDS011;33747;49.524;8.390;2024-02-21T14:31:48;8.98;;;3.00;;
7338;SDS011;33747;49.524;8.390;2024-02-21T14:34:13;7.65;;;3.13;;
7338;SDS011;33747;49.524;8.390;2024-02-21T14:36:39;8.32;;;2.92;;
7338;SDS011;33747;49.524;8.390;2024-02-21T14:39:05;7.97;;;3.08;;
7338;SDS011;33747;49.524;8.390;2024-02-21T14:41:31;7.93;;;3.53;;
7338;SDS011;33747;49.524;8.390;2024-02-21T14:43:56;9.88;;;2.70;;
7338;SDS011;33747;49.524;8.390;2024-02-21T14:46:25;9.32;;;2.88;;
7338;SDS011;33747;49.524;8.390;2024-02-21T14:48:50;14.07;;;3.33;;
7338;SDS011;33747;49.524;8.390;2024-02-21T14:51:16;7.55;;;2.55;;
7338;SDS011;33747;49.524;8.390;2024-02-21T14:53:41;8.55;;;2.67;;